Latest Coastal Weather Observations for Burnie Port

IDT60701

Issued at 9:52 am EDT Friday 27 February 2015 (issued every 10 minutes, with the page automatically refreshed every 10 minutes)

About coastal observations | Map of coastal stations | Coastal observations for TAS | Marine services | Other Formats
Station Details ID: 091344 Name: BURNIE NTC AWS Lat: -41.05 Lon: 145.91 Height: 0.0 m
Data from the previous 72 hours. | See also: Recent months for locations in Tasmania
Date/Time
EDT
Temp

°C
Wind Pressure Rain
since 9am
mm
Weather Cloud Vis
km
Sea
Height
m
Swell
Dir
 
Speed
knots
Gust
knots
hPa Trend Height
m
Period
s
Dir
27/09:30am 14.9 NNW 5 6 1009.3 - - - - - - - - -
27/09:00am 15.1 N 6 8 1009.3 - - - - - - - - -
27/08:30am 15.7 ENE 7 10 1009.2 - - - - - - - - -
27/08:00am 14.8 SSE 5 9 1009.2 - - - - - - - - -
27/07:30am 13.6 S 4 8 1008.7 - - - - - - - - -
27/07:00am 13.6 SSW 4 6 1008.9 - - - - - - - - -
27/06:30am 13.6 SSW 3 5 1008.9 - - - - - - - - -
27/06:00am 13.5 SSW 4 5 1008.9 - - - - - - - - -
27/05:30am 13.6 SSW 5 6 1009.1 - - - - - - - - -
27/05:00am 13.8 SSW 6 8 1009.0 - - - - - - - - -
27/04:30am 14.3 SSW 4 5 1009.0 - - - - - - - - -
27/04:00am 13.2 SSW 6 7 1009.1 - - - - - - - - -
27/03:30am 13.3 SSW 4 7 1009.1 - - - - - - - - -
27/03:00am 13.7 SSW 4 5 1009.3 - - - - - - - - -
27/02:30am 13.7 SSW 7 8 1009.1 - - - - - - - - -
27/02:00am 14.3 SW 3 6 1009.4 - - - - - - - - -
27/01:30am 14.5 SW 3 5 1009.5 - - - - - - - - -
27/01:00am 14.7 SSW 10 12 1009.3 - - - - - - - - -
27/12:30am 15.5 SW 4 6 1009.2 - - - - - - - - -
27/12:00am 15.9 SW 3 5 1009.4 - - - - - - - - -
 
Date/Time
EDT
Temp

°C
Wind Pressure Rain
since 9am
mm
Weather Cloud Vis
km
Sea
Height
m
Swell
Dir
 
Speed
knots
Gust
knots
hPa Trend Height
m
Period
s
Dir
26/11:30pm 16.4 NW 5 6 1009.5 - - - - - - - - -
26/11:00pm 16.7 S 4 7 1009.8 - - - - - - - - -
26/10:30pm 17.4 SW 3 7 1009.4 - - - - - - - - -
26/10:00pm 18.1 SW 4 5 1009.3 - - - - - - - - -
26/09:30pm 18.6 WSW 5 7 1009.1 - - - - - - - - -
26/09:00pm 19.1 SW 4 7 1009.0 - - - - - - - - -
26/08:30pm 19.8 SW 6 9 1008.5 - - - - - - - - -
26/08:00pm 20.5 WSW 9 13 1008.0 - - - - - - - - -
26/07:30pm 21.2 WSW 8 12 1007.5 - - - - - - - - -
26/07:00pm 21.9 SW 10 17 1007.0 - - - - - - - - -
26/06:30pm 21.9 SW 11 19 1006.9 - - - - - - - - -
26/06:00pm 22.3 SW 12 19 1006.6 - - - - - - - - -
26/05:30pm 21.9 SW 13 21 1006.4 - - - - - - - - -
26/05:00pm 23.0 WSW 10 17 1005.9 - - - - - - - - -
26/04:30pm 23.9 WNW 10 18 1005.9 - - - - - - - - -
26/04:00pm 23.6 WNW 5 13 1006.1 - - - - - - - - -
26/03:30pm 22.8 WSW 7 15 1006.4 - - - - - - - - -
26/03:00pm 22.2 SW 6 11 1006.8 - - - - - - - - -
26/02:30pm 21.8 SW 8 13 1006.8 - - - - - - - - -
26/02:00pm 19.6 NNE 6 9 1007.1 - - - - - - - - -
26/01:30pm 18.7 N 9 10 1007.3 - - - - - - - - -
26/01:00pm 18.0 NNE 7 9 1007.5 - - - - - - - - -
26/12:30pm 17.5 NNW 6 8 1007.8 - - - - - - - - -
26/12:00pm 17.3 NW 5 7 1008.2 - - - - - - - - -
26/11:30am 17.2 NNW 5 6 1008.4 - - - - - - - - -
26/11:00am 17.1 NNW 4 5 1008.6 - - - - - - - - -
26/10:30am 17.0 NNW 3 5 1008.6 - - - - - - - - -
26/10:00am 17.2 N 2 4 1008.6 - - - - - - - - -
26/09:30am 16.9 E 2 3 1008.4 - - - - - - - - -
26/09:00am 16.8 SW 1 2 1008.6 - - - - - - - - -
26/08:30am 16.3 S 5 6 1008.4 - - - - - - - - -
26/08:00am 16.2 S 3 4 1008.5 - - - - - - - - -
26/07:30am 16.0 SSW 5 5 1008.6 - - - - - - - - -
26/07:00am 15.8 SSW 4 5 1008.5 - - - - - - - - -
26/06:30am 15.7 S 5 7 1008.3 - - - - - - - - -
26/06:00am 15.6 S 5 6 1008.2 - - - - - - - - -
26/05:30am 15.6 SSE 5 7 1008.0 - - - - - - - - -
26/05:00am 15.5 S 6 8 1008.7 - - - - - - - - -
26/04:30am 15.3 SSE 5 7 1008.9 - - - - - - - - -
26/04:00am 15.4 S 6 8 1009.5 - - - - - - - - -
26/03:30am 15.7 SE 7 10 1009.7 - - - - - - - - -
26/03:00am 16.7 SE 8 12 1010.0 - - - - - - - - -
26/02:30am 16.9 SE 9 12 1010.3 - - - - - - - - -
26/02:00am 17.0 SE 8 11 1010.7 - - - - - - - - -
26/01:30am 17.1 ESE 9 11 1011.0 - - - - - - - - -
26/01:00am 17.4 ESE 11 15 1011.5 - - - - - - - - -
26/12:30am 17.9 E 10 13 1011.9 - - - - - - - - -
26/12:00am 17.9 E 12 15 1012.2 - - - - - - - - -
 
Date/Time
EDT
Temp

°C
Wind Pressure Rain
since 9am
mm
Weather Cloud Vis
km
Sea
Height
m
Swell
Dir
 
Speed
knots
Gust
knots
hPa Trend Height
m
Period
s
Dir
25/11:30pm 17.9 E 11 15 1012.5 - - - - - - - - -
25/11:00pm 17.9 E 12 17 1013.1 - - - - - - - - -
25/10:30pm 17.9 E 11 16 1013.4 - - - - - - - - -
25/10:00pm 18.0 E 11 15 1013.7 - - - - - - - - -
25/09:30pm 18.2 ENE 11 17 1013.9 - - - - - - - - -
25/09:00pm 18.4 ENE 10 16 1013.7 - - - - - - - - -
25/08:30pm 18.2 ENE 10 14 1014.0 - - - - - - - - -
25/08:00pm 18.4 ENE 9 14 1014.5 - - - - - - - - -
25/07:30pm 18.3 E 10 13 1014.7 - - - - - - - - -
25/07:00pm 18.3 ENE 10 14 1014.8 - - - - - - - - -
25/06:30pm 18.3 NE 8 13 1015.5 - - - - - - - - -
25/06:00pm 18.3 ENE 7 14 1015.5 - - - - - - - - -
25/05:30pm 18.2 ENE 9 14 1015.8 - - - - - - - - -
25/05:00pm 18.1 ENE 9 12 1016.3 - - - - - - - - -
25/04:30pm 18.0 E 9 13 1016.6 - - - - - - - - -
25/04:00pm 18.0 E 10 17 1016.8 - - - - - - - - -
25/03:30pm 18.0 ENE 10 14 1017.3 - - - - - - - - -
25/03:00pm 17.9 ENE 8 13 1017.9 - - - - - - - - -
25/02:30pm 17.9 ENE 8 14 1018.5 - - - - - - - - -
25/02:00pm 17.8 ENE 8 12 1019.2 - - - - - - - - -
25/01:30pm 17.8 ENE 6 13 1019.5 - - - - - - - - -
25/01:00pm 17.8 ENE 8 13 1020.1 - - - - - - - - -
25/12:30pm 17.5 E 11 17 1020.1 - - - - - - - - -
25/12:00pm 17.4 E 12 17 1020.3 - - - - - - - - -
25/11:30am 17.1 E 14 18 1020.4 - - - - - - - - -
25/11:00am 16.9 E 13 18 1020.9 - - - - - - - - -
25/10:30am 16.8 E 13 16 1021.0 - - - - - - - - -
25/10:00am 16.5 SE 12 15 1021.1 - - - - - - - - -
25/09:30am 16.1 SE 11 13 1021.2 - - - - - - - - -
25/09:00am 16.2 SE 11 14 1021.1 - - - - - - - - -
25/08:30am 16.1 SE 10 14 1021.0 - - - - - - - - -
25/08:00am 16.0 SE 10 14 1020.9 - - - - - - - - -
25/07:30am 15.9 SE 10 15 1020.8 - - - - - - - - -
25/07:00am 15.9 SE 12 15 1020.7 - - - - - - - - -
25/06:30am 15.8 SE 10 14 1020.4 - - - - - - - - -
25/06:00am 15.7 SSE 9 14 1020.4 - - - - - - - - -
25/05:30am 15.3 S 8 11 1020.4 - - - - - - - - -
25/05:00am 16.0 SE 11 14 1020.3 - - - - - - - - -
25/04:30am 15.7 SSE 8 12 1020.2 - - - - - - - - -
25/04:00am 15.8 SSE 10 15 1020.4 - - - - - - - - -
25/03:30am 15.8 SSE 10 14 1020.5 - - - - - - - - -
25/03:00am 17.1 E 12 17 1020.7 - - - - - - - - -
25/02:30am 17.2 E 11 16 1021.0 - - - - - - - - -
25/02:00am 17.3 ENE 9 14 1021.2 - - - - - - - - -
25/01:30am 17.3 ENE 10 15 1021.4 - - - - - - - - -
25/01:00am 17.4 ENE 8 17 1021.4 - - - - - - - - -
25/12:30am 17.4 NE 13 19 1021.6 - - - - - - - - -
25/12:00am 17.6 NE 13 19 1021.4 - - - - - - - - -
 
Date/Time
EDT
Temp

°C
Wind Pressure Rain
since 9am
mm
Weather Cloud Vis
km
Sea
Height
m
Swell
Dir
 
Speed
knots
Gust
knots
hPa Trend Height
m
Period
s
Dir
24/11:30pm 17.5 NE 14 19 1021.6 - - - - - - - - -
24/11:00pm 17.7 NE 15 18 1021.8 - - - - - - - - -
24/10:30pm 17.8 NE 16 19 1022.2 - - - - - - - - -
24/10:00pm 17.8 NNE 16 19 1021.9 - - - - - - - - -
24/09:30pm 18.0 NNE 11 14 1022.2 - - - - - - - - -
24/09:00pm 17.9 NNE 6 8 1022.1 - - - - - - - - -

Other Formats:

Comma delimited format used in spreadsheet applications
http://www.bom.gov.au/fwo/IDT60701/IDT60701.95963.axf

JavaScript Object Notation format (JSON) in row-major order
http://www.bom.gov.au/fwo/IDT60701/IDT60701.95963.json